createdAt,value
2018-07-08T14:47:45.121Z,49.80
2018-07-08T14:50:26.092Z,50.20
2018-07-08T14:53:06.894Z,49.80
2018-07-08T14:55:47.783Z,50.00
2018-07-08T14:58:28.392Z,50.70
2018-07-08T15:01:09.888Z,50.70
2018-07-08T15:03:50.481Z,50.90
2018-07-08T15:06:31.220Z,51.20
2018-07-08T15:11:53.703Z,52.00
2018-07-08T15:14:34.550Z,51.90
2018-07-08T15:17:15.288Z,51.90
2018-07-08T15:19:55.881Z,52.50
2018-07-08T15:22:36.608Z,52.60
2018-07-08T15:28:24.264Z,53.30
2018-07-08T15:31:04.889Z,54.20
2018-07-08T15:33:45.868Z,53.60
2018-07-08T15:36:26.657Z,53.40
2018-07-08T15:39:07.561Z,53.40
2018-07-08T15:41:48.284Z,53.90
2018-07-08T15:44:28.929Z,54.30
2018-07-08T15:47:09.819Z,54.10
2018-07-08T15:49:50.296Z,54.00
2018-07-08T15:52:31.224Z,54.00
2018-07-08T15:55:11.739Z,53.60
2018-07-08T15:57:52.908Z,53.50
2018-07-08T16:00:34.001Z,54.20
2018-07-08T16:05:56.309Z,54.60
2018-07-08T16:08:37.120Z,55.30
2018-07-08T16:11:18.045Z,55.90
2018-07-08T16:13:59.088Z,55.30
2018-07-08T16:16:40.463Z,56.00
2018-07-08T16:19:21.093Z,56.50
2018-07-08T16:22:01.797Z,57.00
2018-07-08T16:24:42.489Z,57.40
2018-07-08T16:27:23.400Z,57.10
2018-07-08T16:30:04.051Z,58.20
2018-07-08T16:32:44.915Z,58.20
2018-07-08T16:35:26.441Z,58.00
2018-07-08T16:38:07.038Z,58.50
2018-07-08T16:40:47.818Z,58.90
2018-07-08T16:43:28.637Z,59.30
2018-07-08T16:46:09.556Z,59.60
2018-07-08T16:48:50.463Z,60.20
2018-07-08T16:51:31.040Z,60.60
2018-07-08T16:54:11.727Z,61.30
2018-07-08T16:56:52.455Z,62.40
2018-07-08T16:59:33.953Z,62.60
2018-07-08T17:02:14.664Z,63.30
2018-07-08T17:04:55.445Z,64.10
2018-07-08T17:07:36.132Z,64.80
2018-07-08T17:10:17.655Z,65.20
2018-07-08T17:12:59.491Z,65.80
2018-07-08T17:15:40.120Z,66.40
2018-07-08T17:21:03.105Z,67.20
2018-07-08T17:23:44.086Z,67.70
2018-07-08T17:26:24.842Z,68.20
2018-07-08T17:29:05.339Z,68.60
2018-07-08T17:31:46.300Z,69.20
2018-07-08T17:34:26.864Z,69.70
2018-07-08T17:37:07.659Z,70.00
2018-07-08T17:39:48.355Z,70.80
2018-07-08T17:42:29.092Z,70.90
2018-07-08T17:45:09.664Z,71.30
2018-07-08T17:47:50.497Z,71.50
2018-07-08T17:50:31.533Z,71.70
2018-07-08T17:53:12.648Z,71.80
2018-07-08T17:55:53.184Z,72.40
2018-07-08T17:58:34.331Z,72.20
2018-07-08T18:01:15.062Z,72.20
2018-07-08T18:03:55.779Z,71.90
2018-07-08T18:06:36.447Z,72.30
2018-07-08T18:12:03.012Z,73.50
2018-07-08T18:14:43.628Z,73.30
2018-07-08T18:20:06.132Z,74.10
2018-07-08T18:22:46.762Z,74.60
2018-07-08T18:25:27.378Z,75.00
2018-07-08T18:28:08.989Z,75.30
2018-07-08T18:30:49.820Z,75.90
2018-07-08T18:33:30.610Z,76.30
2018-07-08T18:36:11.152Z,77.00
2018-07-08T18:38:51.951Z,77.40
2018-07-08T18:41:32.768Z,77.90
2018-07-08T18:44:13.444Z,78.70
2018-07-08T18:46:54.977Z,79.00
2018-07-08T18:49:35.957Z,79.60
2018-07-08T18:52:16.674Z,80.10
2018-07-08T18:54:58.293Z,80.40
2018-07-08T18:57:39.069Z,81.20
2018-07-08T19:00:19.878Z,81.80
2018-07-08T19:03:00.570Z,82.70
2018-07-08T19:05:41.297Z,82.60
2018-07-08T19:08:22.443Z,82.90
2018-07-08T19:11:03.423Z,83.50
2018-07-08T19:13:44.200Z,84.30
2018-07-08T19:16:24.883Z,84.90
2018-07-08T19:19:05.752Z,85.30
2018-07-08T19:21:47.063Z,85.90
2018-07-08T19:24:28.210Z,86.50
2018-07-08T19:27:09.696Z,87.80
2018-07-08T19:29:50.696Z,88.20
2018-07-08T19:32:31.384Z,88.30
2018-07-08T19:35:12.810Z,89.40
2018-07-08T19:37:55.134Z,89.80
2018-07-08T19:40:36.761Z,90.00
2018-07-08T19:43:18.175Z,90.30
2018-07-08T19:45:59.663Z,90.50
2018-07-08T19:48:41.070Z,90.60
2018-07-08T19:51:22.251Z,90.40
2018-07-08T19:54:03.868Z,90.50
2018-07-08T19:56:44.777Z,90.60
2018-07-08T19:59:26.143Z,90.60
2018-07-08T20:04:49.148Z,89.00
2018-07-08T20:07:30.542Z,88.90
2018-07-08T20:10:11.568Z,85.80
2018-07-08T20:12:52.879Z,84.20
2018-07-08T20:15:34.203Z,84.00
2018-07-08T20:18:15.177Z,84.00
2018-07-08T20:20:56.381Z,84.40
2018-07-08T20:23:37.072Z,84.80
2018-07-08T20:26:18.395Z,84.60
2018-07-08T20:28:59.624Z,83.30
2018-07-08T20:31:41.621Z,81.50
2018-07-08T20:34:23.080Z,79.10
2018-07-08T20:37:04.249Z,76.40
2018-07-08T20:39:45.409Z,76.40
2018-07-08T20:42:26.768Z,76.20
2018-07-08T20:45:08.242Z,75.90
2018-07-08T20:47:49.473Z,75.00
2018-07-08T20:50:30.248Z,74.80
2018-07-08T20:53:11.487Z,74.70
2018-07-08T20:55:52.811Z,75.20
2018-07-08T20:58:34.345Z,74.70
2018-07-08T21:01:15.867Z,73.50
2018-07-08T21:03:57.281Z,73.30
2018-07-08T21:06:38.632Z,71.60
2018-07-08T21:09:19.283Z,70.20
2018-07-08T21:12:00.736Z,68.70
2018-07-08T21:14:41.821Z,68.30
2018-07-08T21:17:23.056Z,69.20
2018-07-08T21:20:04.301Z,68.80
2018-07-08T21:22:45.608Z,68.70
2018-07-08T21:25:27.201Z,67.70
2018-07-08T21:28:08.115Z,66.20
2018-07-08T21:30:49.032Z,66.10
2018-07-08T21:33:30.406Z,65.10
2018-07-08T21:38:52.534Z,62.80
2018-07-08T21:41:33.967Z,62.00
2018-07-08T21:44:15.009Z,61.20
2018-07-08T21:46:56.414Z,57.70
2018-07-08T21:49:37.811Z,56.00
2018-07-08T21:52:18.844Z,55.90
2018-07-08T21:54:59.515Z,55.70
2018-07-08T21:57:40.483Z,55.90
2018-07-08T22:00:21.180Z,54.90
2018-07-08T22:03:02.643Z,54.80
2018-07-08T22:05:43.828Z,54.70
2018-07-08T22:08:29.403Z,54.20
2018-07-08T22:11:11.113Z,53.00
2018-07-08T22:13:52.512Z,53.20
2018-07-08T22:16:34.071Z,53.20
2018-07-08T22:19:15.344Z,52.00
2018-07-08T22:21:56.632Z,52.30
2018-07-08T22:24:37.360Z,51.00
2018-07-08T22:27:18.664Z,50.90
2018-07-08T22:29:59.843Z,51.60
2018-07-08T22:35:26.596Z,50.20
2018-07-08T22:38:08.037Z,49.70
2018-07-08T22:40:48.613Z,49.60
2018-07-08T22:43:29.714Z,50.10
2018-07-08T22:46:10.398Z,50.00
2018-07-08T22:48:51.698Z,50.50
2018-07-08T22:51:33.105Z,50.70
2018-07-08T22:54:13.903Z,50.80
2018-07-08T22:56:54.525Z,50.90
2018-07-08T22:59:35.796Z,51.00
2018-07-08T23:02:16.792Z,51.00
2018-07-08T23:04:57.809Z,50.70
2018-07-08T23:07:38.760Z,50.80
2018-07-08T23:10:20.020Z,50.80
2018-07-08T23:13:01.115Z,51.20
2018-07-08T23:15:42.588Z,51.20
2018-07-08T23:18:23.979Z,51.20
2018-07-08T23:23:46.072Z,50.70
2018-07-08T23:26:27.261Z,50.90
2018-07-08T23:29:07.885Z,51.50
2018-07-08T23:31:48.965Z,51.50
2018-07-08T23:34:30.253Z,52.60
2018-07-08T23:37:10.926Z,53.10
2018-07-08T23:39:52.251Z,53.80
2018-07-08T23:42:33.426Z,54.60
2018-07-08T23:45:14.131Z,54.60
2018-07-08T23:47:55.081Z,54.60
2018-07-08T23:50:36.157Z,54.60
2018-07-08T23:53:17.461Z,54.60
2018-07-08T23:55:58.487Z,54.60
